createdAt,value
2023-05-18T00:02:08.947Z,98000.74
2023-05-18T00:04:41.714Z,97998.14
2023-05-18T00:07:15.164Z,97995.38
2023-05-18T00:09:47.924Z,97998.48
2023-05-18T00:12:20.453Z,97999.84
2023-05-18T00:14:53.510Z,98005.88
2023-05-18T00:17:26.526Z,98009.50
2023-05-18T00:19:59.026Z,98008.98
2023-05-18T00:22:32.044Z,98013.41
2023-05-18T00:25:04.978Z,98010.99
2023-05-18T00:27:37.536Z,98008.75
2023-05-18T00:30:11.773Z,98008.25
2023-05-18T00:32:44.286Z,98011.36
2023-05-18T00:35:17.707Z,98015.45
2023-05-18T00:37:50.217Z,98013.39
2023-05-18T00:40:23.569Z,98017.53
2023-05-18T00:42:57.487Z,98013.63
2023-05-18T00:45:30.728Z,98018.59
2023-05-18T00:48:01.826Z,98016.90
2023-05-18T00:50:34.539Z,98017.47
2023-05-18T00:53:07.388Z,98015.52
2023-05-18T00:55:40.132Z,98016.55
2023-05-18T00:58:14.665Z,98017.89
2023-05-18T01:00:47.559Z,98018.29
2023-05-18T01:03:21.948Z,98020.48
2023-05-18T01:05:58.457Z,98024.67
2023-05-18T01:08:32.572Z,98024.14
2023-05-18T01:11:13.868Z,98025.68
2023-05-18T01:13:56.717Z,98027.05
2023-05-18T01:16:34.712Z,98028.59
2023-05-18T01:19:25.744Z,98030.50
2023-05-18T01:22:09.661Z,98033.10
2023-05-18T01:24:43.854Z,98034.51
2023-05-18T01:27:18.104Z,98037.65
2023-05-18T01:29:52.705Z,98038.03
2023-05-18T01:32:26.708Z,98039.39
2023-05-18T01:34:59.329Z,98041.47
2023-05-18T01:37:32.182Z,98038.55
2023-05-18T01:40:06.089Z,98041.98
2023-05-18T01:42:39.899Z,98041.52
2023-05-18T01:45:18.029Z,98044.98
2023-05-18T01:47:55.343Z,98044.10
2023-05-18T01:50:38.125Z,98045.98
2023-05-18T01:53:21.693Z,98048.23
2023-05-18T01:55:57.796Z,98049.27
2023-05-18T01:58:30.745Z,98046.73
2023-05-18T02:01:02.354Z,98049.64
2023-05-18T02:03:38.682Z,98043.54
2023-05-18T02:06:11.382Z,98044.54
2023-05-18T02:08:44.455Z,98043.19
2023-05-18T02:11:17.018Z,98043.21
2023-05-18T02:13:49.668Z,98048.37
2023-05-18T02:16:22.540Z,98047.70
2023-05-18T02:18:55.197Z,98042.74
2023-05-18T02:21:27.671Z,98049.78
2023-05-18T02:24:00.389Z,98049.61
2023-05-18T02:26:33.025Z,98049.06
2023-05-18T02:29:06.691Z,98050.46
2023-05-18T02:31:40.687Z,98057.35
2023-05-18T02:34:13.398Z,98055.76
2023-05-18T02:36:49.121Z,98059.04
2023-05-18T02:39:23.122Z,98060.79
2023-05-18T02:41:55.590Z,98062.98
2023-05-18T02:44:28.164Z,98062.55
2023-05-18T02:47:01.103Z,98067.73
2023-05-18T02:49:33.806Z,98072.90
2023-05-18T02:52:06.634Z,98075.89
2023-05-18T02:54:39.336Z,98078.64
2023-05-18T02:57:16.116Z,98083.16
2023-05-18T02:59:56.207Z,98086.44
2023-05-18T03:02:28.993Z,98088.16
2023-05-18T03:05:01.727Z,98090.95
2023-05-18T03:07:34.855Z,98096.24
2023-05-18T03:10:09.439Z,98102.65
2023-05-18T03:12:42.150Z,98102.36
2023-05-18T03:15:16.608Z,98102.67
2023-05-18T03:17:49.971Z,98104.81
2023-05-18T03:20:23.528Z,98108.81
2023-05-18T03:22:57.418Z,98110.81
2023-05-18T03:25:30.878Z,98111.85
2023-05-18T03:28:04.093Z,98112.85
2023-05-18T03:30:37.477Z,98116.52
2023-05-18T03:33:10.985Z,98121.89
2023-05-18T03:35:43.498Z,98125.52
2023-05-18T03:38:17.813Z,98126.73
2023-05-18T03:40:54.170Z,98129.88
2023-05-18T03:43:27.059Z,98132.63
2023-05-18T03:46:00.008Z,98133.86
2023-05-18T03:48:33.139Z,98136.81
2023-05-18T03:51:06.609Z,98140.95
2023-05-18T03:53:40.096Z,98143.52
2023-05-18T03:56:13.734Z,98146.81
2023-05-18T03:58:46.312Z,98148.57
2023-05-18T04:01:20.496Z,98149.60
2023-05-18T04:03:56.746Z,98155.48
2023-05-18T04:06:31.807Z,98155.81
2023-05-18T04:09:05.214Z,98158.40
2023-05-18T04:11:36.227Z,98158.96
2023-05-18T04:14:09.131Z,98160.72
2023-05-18T04:16:41.929Z,98163.08
2023-05-18T04:19:15.360Z,98163.73
2023-05-18T04:21:49.232Z,98162.16
2023-05-18T04:24:23.722Z,98169.06
2023-05-18T04:26:56.631Z,98175.77
2023-05-18T04:29:29.759Z,98177.21
2023-05-18T04:32:02.996Z,98181.35
2023-05-18T04:34:36.105Z,98183.96
2023-05-18T04:37:10.886Z,98188.31
2023-05-18T04:39:43.879Z,98187.98
2023-05-18T04:42:19.101Z,98190.77
2023-05-18T04:44:54.688Z,98192.85
2023-05-18T04:47:27.546Z,98200.42
2023-05-18T04:50:00.544Z,98198.52
2023-05-18T04:52:37.364Z,98199.70
2023-05-18T04:55:12.501Z,98201.43
2023-05-18T04:57:45.344Z,98202.25
2023-05-18T05:00:20.352Z,98207.55
2023-05-18T05:02:54.891Z,98209.94
2023-05-18T05:05:28.047Z,98212.00
2023-05-18T05:08:02.347Z,98211.02
2023-05-18T05:10:35.547Z,98217.40
2023-05-18T05:13:09.644Z,98219.10
2023-05-18T05:15:42.454Z,98217.33
2023-05-18T05:18:15.369Z,98221.79
2023-05-18T05:20:48.029Z,98223.34
2023-05-18T05:23:22.293Z,98226.31
2023-05-18T05:25:56.272Z,98228.72
2023-05-18T05:28:29.367Z,98230.88
2023-05-18T05:31:02.332Z,98234.98
2023-05-18T05:33:34.822Z,98231.98
2023-05-18T05:36:08.807Z,98232.70
2023-05-18T05:38:42.613Z,98234.58
2023-05-18T05:41:15.719Z,98236.79
2023-05-18T05:43:48.768Z,98237.63
2023-05-18T05:46:21.551Z,98242.45
2023-05-18T05:48:54.198Z,98240.38
2023-05-18T05:51:26.762Z,98239.69
2023-05-18T05:53:59.746Z,98237.43
2023-05-18T05:56:32.854Z,98236.73
2023-05-18T05:59:06.551Z,98238.27
2023-05-18T06:01:37.223Z,98239.95
2023-05-18T06:04:12.958Z,98240.30
2023-05-18T06:06:45.679Z,98241.26
2023-05-18T06:09:19.005Z,98244.88
2023-05-18T06:11:53.515Z,98247.45
2023-05-18T06:14:26.613Z,98245.23
2023-05-18T06:16:58.424Z,98249.31
2023-05-18T06:19:33.832Z,98250.70
2023-05-18T06:22:08.109Z,98248.45
2023-05-18T06:24:49.024Z,98255.61
2023-05-18T06:27:37.144Z,98255.23
2023-05-18T06:30:41.890Z,98257.48
2023-05-18T06:33:36.235Z,98255.88
2023-05-18T06:36:10.597Z,98258.98
2023-05-18T06:38:43.218Z,98258.29
2023-05-18T06:41:16.269Z,98264.30
2023-05-18T06:43:49.429Z,98269.11
2023-05-18T06:46:28.221Z,98272.55
2023-05-18T06:49:05.650Z,98275.29
2023-05-18T06:51:38.434Z,98277.16
2023-05-18T06:54:11.769Z,98281.13
2023-05-18T06:56:44.622Z,98281.46
2023-05-18T06:59:17.161Z,98285.22
2023-05-18T07:01:49.911Z,98284.20
2023-05-18T07:04:22.549Z,98288.88
2023-05-18T07:06:56.373Z,98290.25
2023-05-18T07:09:29.536Z,98293.85
2023-05-18T07:12:02.649Z,98295.33
2023-05-18T07:14:35.336Z,98296.33
2023-05-18T07:17:08.754Z,98295.75
2023-05-18T07:19:41.601Z,98295.35
2023-05-18T07:22:14.250Z,98296.89
2023-05-18T07:24:47.236Z,98298.89
2023-05-18T07:27:19.599Z,98304.39
2023-05-18T07:29:52.306Z,98310.00
2023-05-18T07:32:25.290Z,98310.30
2023-05-18T07:34:57.889Z,98309.98
2023-05-18T07:37:31.068Z,98311.31
2023-05-18T07:40:04.867Z,98313.13
2023-05-18T07:42:37.881Z,98315.66
2023-05-18T07:45:13.059Z,98313.31
2023-05-18T07:47:45.704Z,98311.80
2023-05-18T07:50:18.243Z,98312.56
2023-05-18T07:52:50.762Z,98310.61
2023-05-18T07:55:26.263Z,98318.30
2023-05-18T07:58:01.397Z,98312.85
2023-05-18T08:00:52.022Z,98316.17
2023-05-18T08:03:42.065Z,98318.25
2023-05-18T08:06:15.459Z,98319.20
2023-05-18T08:08:48.118Z,98314.18
2023-05-18T08:11:22.649Z,98319.27
2023-05-18T08:13:55.331Z,98323.58
2023-05-18T08:16:28.148Z,98325.67
2023-05-18T08:19:01.388Z,98325.34
2023-05-18T08:21:33.987Z,98325.98
2023-05-18T08:24:08.595Z,98327.88
2023-05-18T08:26:41.546Z,98325.25
2023-05-18T08:29:16.396Z,98328.45
2023-05-18T08:31:49.706Z,98332.10
2023-05-18T08:34:20.830Z,98332.17
2023-05-18T08:36:53.398Z,98331.61
2023-05-18T08:39:26.416Z,98328.44
2023-05-18T08:42:03.198Z,98331.87
2023-05-18T08:44:46.069Z,98334.39
2023-05-18T08:47:19.885Z,98343.30
2023-05-18T08:49:57.666Z,98341.89
2023-05-18T08:52:33.559Z,98342.46
2023-05-18T08:55:12.132Z,98342.78
2023-05-18T08:57:50.522Z,98341.66
2023-05-18T09:00:24.646Z,98340.91
2023-05-18T09:02:57.946Z,98340.85
2023-05-18T09:05:30.828Z,98339.76
2023-05-18T09:08:04.455Z,98340.56
2023-05-18T09:10:37.830Z,98341.17
2023-05-18T09:13:11.894Z,98336.68
2023-05-18T09:15:44.990Z,98339.23
2023-05-18T09:18:17.556Z,98337.98
2023-05-18T09:37:53.807Z,98340.34
2023-05-18T09:40:32.136Z,98341.02
2023-05-18T09:43:13.475Z,98341.61
2023-05-18T09:45:49.195Z,98348.84
2023-05-18T09:48:25.173Z,98343.65
2023-05-18T09:51:00.640Z,98343.54
2023-05-18T09:53:33.677Z,98343.24
2023-05-18T09:56:12.343Z,98338.97
2023-05-18T09:58:45.247Z,98338.58
2023-05-18T10:01:17.933Z,98338.55
2023-05-18T10:03:50.773Z,98334.90
2023-05-18T10:06:28.394Z,98341.52
2023-05-18T10:09:04.427Z,98336.10
2023-05-18T10:11:38.699Z,98334.20
2023-05-18T10:14:16.390Z,98329.19
2023-05-18T10:16:51.712Z,98333.27
2023-05-18T10:19:32.030Z,98332.26
2023-05-18T10:22:07.868Z,98329.32
2023-05-18T10:24:44.309Z,98326.42
2023-05-18T10:27:25.264Z,98327.38
2023-05-18T10:29:59.598Z,98323.33
2023-05-18T10:32:34.822Z,98328.05
2023-05-18T10:35:09.627Z,98325.21
2023-05-18T10:37:47.615Z,98323.05
2023-05-18T10:40:21.731Z,98321.33
2023-05-18T10:42:58.644Z,98320.16
2023-05-18T10:45:34.993Z,98318.34
2023-05-18T10:48:11.604Z,98317.30
2023-05-18T10:50:46.001Z,98314.13
2023-05-18T10:53:21.522Z,98315.99
2023-05-18T10:55:55.052Z,98315.66
2023-05-18T10:58:27.347Z,98319.86
2023-05-18T11:01:01.351Z,98326.21
2023-05-18T11:03:38.731Z,98330.86
2023-05-18T11:06:13.447Z,98330.34
2023-05-18T11:08:51.549Z,98328.52
2023-05-18T11:11:30.339Z,98329.48
2023-05-18T11:14:07.445Z,98328.94
2023-05-18T11:16:43.673Z,98330.74
2023-05-18T11:19:18.028Z,98327.74
2023-05-18T11:21:57.078Z,98326.65
2023-05-18T11:24:34.749Z,98325.40
2023-05-18T11:27:16.691Z,98325.39
2023-05-18T11:29:53.383Z,98324.89
2023-05-18T11:32:33.305Z,98324.64
2023-05-18T11:35:11.487Z,98329.52
2023-05-18T11:37:53.148Z,98330.23
2023-05-18T11:40:48.340Z,98332.33
2023-05-18T11:43:28.088Z,98329.14
2023-05-18T11:46:01.193Z,98332.16
2023-05-18T11:48:35.277Z,98326.92
2023-05-18T11:51:12.242Z,98326.73
2023-05-18T11:53:45.268Z,98324.55
2023-05-18T11:56:17.858Z,98324.14
2023-05-18T11:59:10.675Z,98327.91
2023-05-18T12:01:45.388Z,98329.43
2023-05-18T12:04:18.887Z,98329.42
2023-05-18T12:06:49.649Z,98335.09
2023-05-18T12:09:26.026Z,98339.23
2023-05-18T12:11:56.764Z,98343.34
2023-05-18T12:14:31.407Z,98344.45
2023-05-18T12:17:05.985Z,98349.98
2023-05-18T12:19:48.904Z,98351.90
2023-05-18T12:22:21.797Z,98349.88
2023-05-18T12:24:56.318Z,98350.67
2023-05-18T12:27:29.635Z,98351.02
2023-05-18T12:30:02.361Z,98346.18
2023-05-18T12:32:35.198Z,98352.15
2023-05-18T12:35:09.225Z,98348.30
2023-05-18T12:37:47.430Z,98348.45
2023-05-18T12:40:21.276Z,98349.71
2023-05-18T12:42:58.601Z,98355.41
2023-05-18T12:45:33.675Z,98355.39
2023-05-18T12:48:10.157Z,98356.54
2023-05-18T12:50:51.069Z,98359.04
2023-05-18T12:53:27.040Z,98356.39
2023-05-18T12:56:04.679Z,98358.11
2023-05-18T12:58:37.219Z,98355.84
2023-05-18T13:01:13.215Z,98359.65
2023-05-18T13:03:46.127Z,98356.45
2023-05-18T13:06:22.336Z,98355.39
2023-05-18T13:08:58.686Z,98356.96
2023-05-18T13:11:31.232Z,98357.30
2023-05-18T13:14:08.591Z,98361.40
2023-05-18T13:16:46.952Z,98362.08
2023-05-18T13:19:20.671Z,98365.69
2023-05-18T13:21:59.505Z,98370.65
2023-05-18T13:24:32.516Z,98367.52
2023-05-18T13:27:05.382Z,98366.25
2023-05-18T13:29:37.877Z,98363.67
2023-05-18T13:35:34.671Z,98362.69
2023-05-18T13:38:07.600Z,98363.04
2023-05-18T13:40:40.719Z,98363.60
2023-05-18T13:43:14.009Z,98364.67
2023-05-18T13:45:45.256Z,98368.77
2023-05-18T13:48:18.560Z,98368.48
2023-05-18T13:50:51.490Z,98373.29
2023-05-18T13:53:30.323Z,98376.41
2023-05-18T13:56:03.248Z,98374.80
2023-05-18T13:58:36.480Z,98375.83
2023-05-18T14:01:12.751Z,98373.44
2023-05-18T14:03:46.631Z,98373.92
2023-05-18T14:06:23.157Z,98376.02
2023-05-18T14:08:55.989Z,98373.27
2023-05-18T14:11:28.858Z,98373.39
2023-05-18T14:14:01.361Z,98370.55
2023-05-18T14:16:33.954Z,98365.89
2023-05-18T14:19:08.898Z,98365.70
2023-05-18T14:21:41.871Z,98364.90
2023-05-18T14:24:15.649Z,98361.52
2023-05-18T14:26:48.407Z,98360.37
2023-05-18T14:29:20.905Z,98358.55
2023-05-18T14:31:56.314Z,98358.85
2023-05-18T14:34:29.385Z,98357.95
2023-05-18T14:37:02.373Z,98358.59
2023-05-18T14:39:36.332Z,98358.60
2023-05-18T14:42:10.178Z,98356.44
2023-05-18T14:44:43.489Z,98355.02
2023-05-18T14:47:17.498Z,98352.61
2023-05-18T14:49:50.146Z,98352.63
2023-05-18T14:52:23.377Z,98354.65
2023-05-18T14:54:55.950Z,98359.58
2023-05-18T14:57:28.624Z,98360.90
2023-05-18T15:00:02.527Z,98358.58
2023-05-18T15:02:35.679Z,98360.42
2023-05-18T15:05:09.839Z,98359.92
2023-05-18T15:07:42.653Z,98360.08
2023-05-18T15:10:16.308Z,98360.79
2023-05-18T15:12:47.356Z,98365.58
2023-05-18T15:15:23.247Z,98361.58
2023-05-18T15:17:57.636Z,98361.46
2023-05-18T15:20:39.879Z,98364.23
2023-05-18T15:23:15.510Z,98364.56
2023-05-18T15:25:49.425Z,98363.77
2023-05-18T15:28:23.158Z,98365.00
2023-05-18T15:30:56.244Z,98363.82
2023-05-18T15:33:27.279Z,98364.85
2023-05-18T15:36:00.225Z,98365.13
2023-05-18T15:38:33.108Z,98367.39
2023-05-18T15:41:08.976Z,98366.37
2023-05-18T15:43:42.128Z,98366.97
2023-05-18T15:46:16.041Z,98368.65
2023-05-18T15:48:49.128Z,98367.06
2023-05-18T15:51:21.845Z,98369.45
2023-05-18T15:53:56.297Z,98368.52
2023-05-18T15:56:29.189Z,98367.64
2023-05-18T15:59:01.676Z,98368.31
2023-05-18T16:01:34.595Z,98371.09
2023-05-18T16:04:07.766Z,98376.13
2023-05-18T16:06:40.769Z,98379.38
2023-05-18T16:09:13.980Z,98377.81
2023-05-18T16:11:50.538Z,98381.27
2023-05-18T16:14:23.346Z,98381.27
2023-05-18T16:16:55.911Z,98386.00
2023-05-18T16:19:29.057Z,98386.14
2023-05-18T16:22:05.536Z,98386.33
2023-05-18T16:24:40.685Z,98388.95
2023-05-18T16:27:13.983Z,98385.00
2023-05-18T16:29:46.959Z,98388.83
2023-05-18T16:32:19.610Z,98387.27
2023-05-18T16:34:52.178Z,98388.29
2023-05-18T16:37:25.364Z,98389.55
2023-05-18T16:39:59.471Z,98395.36
2023-05-18T16:42:32.299Z,98392.98
2023-05-18T16:45:05.631Z,98392.17
2023-05-18T16:47:40.918Z,98391.67
2023-05-18T16:50:16.602Z,98391.14
2023-05-18T16:52:53.449Z,98396.47
2023-05-18T16:55:26.308Z,98397.67
2023-05-18T16:57:59.211Z,98395.45
2023-05-18T17:00:33.926Z,98399.65
2023-05-18T17:03:07.017Z,98401.20
2023-05-18T17:05:40.165Z,98398.57
2023-05-18T17:08:12.830Z,98400.29
2023-05-18T17:10:46.057Z,98402.17
2023-05-18T17:13:18.575Z,98403.13
2023-05-18T17:15:51.317Z,98402.42
2023-05-18T17:18:23.679Z,98404.02
2023-05-18T17:20:56.452Z,98406.26
2023-05-18T17:23:28.927Z,98409.17
2023-05-18T17:26:06.727Z,98410.86
2023-05-18T17:28:39.513Z,98412.60
2023-05-18T17:31:12.307Z,98413.35
2023-05-18T17:33:47.689Z,98410.98
2023-05-18T17:36:20.248Z,98415.45
2023-05-18T17:38:53.264Z,98413.52
2023-05-18T17:41:26.195Z,98416.79
2023-05-18T17:43:59.095Z,98413.52
2023-05-18T17:46:32.091Z,98411.45
2023-05-18T17:49:05.383Z,98409.90
2023-05-18T17:51:38.347Z,98409.00
2023-05-18T17:54:11.742Z,98410.71
2023-05-18T17:56:49.117Z,98410.35
2023-05-18T17:59:24.468Z,98410.39
2023-05-18T18:01:57.177Z,98409.73
2023-05-18T18:04:29.603Z,98412.84
2023-05-18T18:07:02.014Z,98413.52
2023-05-18T18:09:34.917Z,98412.31
2023-05-18T18:12:08.233Z,98420.23
2023-05-18T18:14:39.416Z,98418.48
2023-05-18T18:17:12.068Z,98412.20
2023-05-18T18:19:46.614Z,98413.92
2023-05-18T18:22:19.742Z,98413.08
2023-05-18T18:24:52.837Z,98417.55
2023-05-18T18:27:27.152Z,98420.33
2023-05-18T18:30:01.979Z,98420.50
2023-05-18T18:56:50.195Z,98433.67
2023-05-18T18:59:23.325Z,98436.08
2023-05-18T19:01:55.991Z,98438.16
2023-05-18T19:04:29.977Z,98437.98
2023-05-18T19:07:05.141Z,98441.61
2023-05-18T19:09:38.630Z,98444.23
2023-05-18T19:12:13.063Z,98444.05
2023-05-18T19:14:48.087Z,98443.04
2023-05-18T19:17:21.613Z,98444.93
2023-05-18T19:19:54.764Z,98443.40
2023-05-18T19:22:28.052Z,98447.05
2023-05-18T19:25:00.926Z,98451.70
2023-05-18T19:27:38.768Z,98452.77
2023-05-18T19:30:16.951Z,98452.44
2023-05-18T19:32:51.103Z,98450.88
2023-05-18T19:35:25.252Z,98452.94
2023-05-18T19:37:58.013Z,98455.22
2023-05-18T19:40:30.773Z,98451.21
2023-05-18T19:43:06.259Z,98455.35
2023-05-18T19:45:42.766Z,98443.96
2023-05-18T19:48:15.908Z,98448.41
2023-05-18T19:50:49.107Z,98446.50
2023-05-18T19:53:24.117Z,98447.89
2023-05-18T19:55:57.213Z,98447.02
2023-05-18T19:58:30.207Z,98448.92
2023-05-18T20:01:03.444Z,98445.30
2023-05-18T20:03:39.585Z,98448.77
2023-05-18T20:06:14.276Z,98447.88
2023-05-18T20:08:48.400Z,98450.80
2023-05-18T20:11:22.147Z,98451.85
2023-05-18T20:13:56.842Z,98455.97
2023-05-18T20:16:29.827Z,98456.33
2023-05-18T20:19:05.112Z,98455.81
2023-05-18T20:21:38.749Z,98454.44
2023-05-18T20:24:10.080Z,98453.92
2023-05-18T20:26:42.765Z,98454.33
2023-05-18T20:29:15.924Z,98456.71
2023-05-18T20:31:48.659Z,98458.23
2023-05-18T20:34:21.357Z,98456.31
2023-05-18T20:36:54.094Z,98456.83
2023-05-18T20:39:29.218Z,98457.50
2023-05-18T20:42:03.514Z,98459.39
2023-05-18T20:44:38.274Z,98460.09
2023-05-18T20:47:11.626Z,98460.10
2023-05-18T20:49:44.307Z,98461.64
2023-05-18T20:52:17.481Z,98461.65
2023-05-18T20:54:50.644Z,98463.04
2023-05-18T20:57:28.101Z,98465.11
2023-05-18T21:00:00.589Z,98468.25
2023-05-18T21:02:34.039Z,98466.70
2023-05-18T21:05:11.666Z,98467.76
2023-05-18T21:07:47.067Z,98472.30
2023-05-18T21:10:20.446Z,98473.86
2023-05-18T21:12:51.439Z,98471.97
2023-05-18T21:15:24.270Z,98472.21
2023-05-18T21:17:57.016Z,98472.73
2023-05-18T21:20:30.039Z,98470.34
2023-05-18T21:23:02.820Z,98468.28
2023-05-18T21:25:35.489Z,98469.69
2023-05-18T21:28:09.600Z,98471.25
2023-05-18T21:30:42.301Z,98476.63
2023-05-18T21:33:15.395Z,98475.44
2023-05-18T21:35:48.099Z,98475.11
2023-05-18T21:38:20.571Z,98470.15
2023-05-18T21:40:53.192Z,98469.67
2023-05-18T21:43:26.004Z,98470.02
2023-05-18T21:45:58.525Z,98469.35
2023-05-18T21:48:31.201Z,98469.19
2023-05-18T21:51:04.580Z,98471.61
2023-05-18T21:53:37.055Z,98471.80
2023-05-18T21:56:10.324Z,98470.79
2023-05-18T21:58:42.913Z,98468.71
2023-05-18T22:01:19.989Z,98468.04
2023-05-18T22:03:52.779Z,98469.07
2023-05-18T22:06:26.144Z,98465.11
